Covington, VA

5:26 AM EDT on July 29, 2016 (GMT -0400)
Rich Patch Rd between Bensrun Rd and blue Spring Run Rd | | Change Station

Elev 1604 ft 37.68 °N, 80.07 °W | Updated 12 minutes ago

Overcast
Overcast
67.3 °F
Feels Like 67.3 °F
N
0.0
Wind Variable Wind from SSW

Today
High -- | Low -- °F
--% Chance of Precip.
Yesterday
High -- | Low -- °F
Precip. -- in
Pressure 29.98 in
Visibility 10.0 miles
Clouds Overcast 3400 ft
Dew Point 67 °F
Humidity 98%
Rainfall 0.01 in
Snow Depth Not available.
6:21 AM 8:31 PM
Waning Crescent, 23% visible
METAR KLWB 290915Z AUTO 27005KT 10SM OVC034 20/18 A2998 RMK AO2 T01950180
Pressure 29.98 in
Visibility 10.0 miles
Clouds Overcast 3400 ft
Dew Point 67 °F
Humidity 98%
Rainfall 0.01 in
Snow Depth Not available.
6:21 AM 8:31 PM
Waning Crescent, 23% visible
METAR KLWB 290915Z AUTO 27005KT 10SM OVC034 20/18 A2998 RMK AO2 T01950180

10-Day Weather Forecast

Almanac

Astronomy

Jul. 29, 2016 Rise Set
Actual Time
Civil Twilight
Nautical Twilight
Astronomical Twilight
Moon
Length of Visible Light
Length of Day
Tomorrow will be .
, % of the Moon is Illuminated

Today's Extremes

State Highs State Lows

Community

WunderPhotos

Upload Photos

1,928,300 photos uploaded!

WunderBlog® & News

Nearby

Air Quality

  Air Quality AQ Index Pollutant
Not available.

Snow Depth

Station Depth Elevation

Earthquake Activity

City Distance Mag. Time & Date
Minimum magnitude displayed is 2.5.

Coastal Water Temperatures

Place Temperature

Stations

Nearby Weather Stations

Station Location Temp. Windchill Dew Point Humidity Wind Precip. Elev Updated Type
                   

Watches & Warnings

There are currently no watches in effect.